sensor_id;sensor_type;location;lat;lon;timestamp;temperature;humidity
16074;DHT22;8141;52.664;5.074;2023-07-09T00:02:10;26.40;62.60
16074;DHT22;8141;52.664;5.074;2023-07-09T00:04:37;26.40;62.70
16074;DHT22;8141;52.664;5.074;2023-07-09T00:07:03;26.40;62.80
16074;DHT22;8141;52.664;5.074;2023-07-09T00:09:30;26.40;62.80
16074;DHT22;8141;52.664;5.074;2023-07-09T00:11:56;26.40;62.70
16074;DHT22;8141;52.664;5.074;2023-07-09T00:14:22;26.40;62.60
16074;DHT22;8141;52.664;5.074;2023-07-09T00:16:48;26.40;62.60
16074;DHT22;8141;52.664;5.074;2023-07-09T00:19:19;26.40;62.50
16074;DHT22;8141;52.664;5.074;2023-07-09T00:21:49;26.40;62.50
16074;DHT22;8141;52.664;5.074;2023-07-09T00:24:19;26.40;62.50
16074;DHT22;8141;52.664;5.074;2023-07-09T00:26:45;26.40;62.30
16074;DHT22;8141;52.664;5.074;2023-07-09T00:29:13;26.40;62.30
16074;DHT22;8141;52.664;5.074;2023-07-09T00:31:40;26.40;62.30
16074;DHT22;8141;52.664;5.074;2023-07-09T00:34:08;26.40;62.30
16074;DHT22;8141;52.664;5.074;2023-07-09T00:36:34;26.40;62.20
16074;DHT22;8141;52.664;5.074;2023-07-09T00:39:00;26.40;62.20
16074;DHT22;8141;52.664;5.074;2023-07-09T00:41:36;26.40;62.20
16074;DHT22;8141;52.664;5.074;2023-07-09T00:44:23;26.40;62.30
16074;DHT22;8141;52.664;5.074;2023-07-09T00:47:24;26.40;62.20
16074;DHT22;8141;52.664;5.074;2023-07-09T00:50:10;26.40;62.20
16074;DHT22;8141;52.664;5.074;2023-07-09T00:52:51;26.40;62.30
16074;DHT22;8141;52.664;5.074;2023-07-09T00:55:23;26.30;62.30
16074;DHT22;8141;52.664;5.074;2023-07-09T00:57:55;26.30;62.40
16074;DHT22;8141;52.664;5.074;2023-07-09T01:00:33;26.30;62.40
16074;DHT22;8141;52.664;5.074;2023-07-09T01:03:09;26.40;62.40
16074;DHT22;8141;52.664;5.074;2023-07-09T01:05:37;26.30;62.50
16074;DHT22;8141;52.664;5.074;2023-07-09T01:08:05;26.30;62.50
16074;DHT22;8141;52.664;5.074;2023-07-09T01:10:34;26.30;62.50
16074;DHT22;8141;52.664;5.074;2023-07-09T01:13:00;26.30;62.50
16074;DHT22;8141;52.664;5.074;2023-07-09T01:15:26;26.30;63.20
16074;DHT22;8141;52.664;5.074;2023-07-09T01:17:51;26.30;62.50
16074;DHT22;8141;52.664;5.074;2023-07-09T01:20:20;26.30;62.50
16074;DHT22;8141;52.664;5.074;2023-07-09T01:22:48;26.30;62.60
16074;DHT22;8141;52.664;5.074;2023-07-09T01:25:15;26.30;62.60
16074;DHT22;8141;52.664;5.074;2023-07-09T01:27:44;26.30;62.80
16074;DHT22;8141;52.664;5.074;2023-07-09T01:30:27;26.30;62.70
16074;DHT22;8141;52.664;5.074;2023-07-09T01:32:58;26.30;62.80
16074;DHT22;8141;52.664;5.074;2023-07-09T01:35:27;26.30;62.80
16074;DHT22;8141;52.664;5.074;2023-07-09T01:37:55;26.30;63.00
16074;DHT22;8141;52.664;5.074;2023-07-09T01:40:22;26.30;63.00
16074;DHT22;8141;52.664;5.074;2023-07-09T01:42:51;26.30;63.00
16074;DHT22;8141;52.664;5.074;2023-07-09T01:45:17;26.30;63.10
16074;DHT22;8141;52.664;5.074;2023-07-09T01:47:45;26.30;63.00
16074;DHT22;8141;52.664;5.074;2023-07-09T01:50:12;26.20;63.00
16074;DHT22;8141;52.664;5.074;2023-07-09T01:52:40;26.20;63.10
16074;DHT22;8141;52.664;5.074;2023-07-09T01:55:13;26.20;63.10
16074;DHT22;8141;52.664;5.074;2023-07-09T01:57:42;26.20;63.20
16074;DHT22;8141;52.664;5.074;2023-07-09T02:00:10;26.20;63.30
16074;DHT22;8141;52.664;5.074;2023-07-09T02:02:41;26.20;63.20
16074;DHT22;8141;52.664;5.074;2023-07-09T02:05:13;26.20;63.30
16074;DHT22;8141;52.664;5.074;2023-07-09T02:07:42;26.30;63.30
16074;DHT22;8141;52.664;5.074;2023-07-09T02:10:08;26.20;63.20
16074;DHT22;8141;52.664;5.074;2023-07-09T02:12:37;26.20;63.20
16074;DHT22;8141;52.664;5.074;2023-07-09T02:15:03;26.20;63.30
16074;DHT22;8141;52.664;5.074;2023-07-09T02:17:30;26.20;63.20
16074;DHT22;8141;52.664;5.074;2023-07-09T02:19:55;26.20;63.10
16074;DHT22;8141;52.664;5.074;2023-07-09T02:22:21;26.20;63.20
16074;DHT22;8141;52.664;5.074;2023-07-09T02:24:47;26.20;63.30
16074;DHT22;8141;52.664;5.074;2023-07-09T02:27:16;26.20;63.30
16074;DHT22;8141;52.664;5.074;2023-07-09T02:29:42;26.20;63.20
16074;DHT22;8141;52.664;5.074;2023-07-09T02:32:08;26.20;63.20
16074;DHT22;8141;52.664;5.074;2023-07-09T02:34:34;26.20;63.10
16074;DHT22;8141;52.664;5.074;2023-07-09T02:37:00;26.20;63.20
16074;DHT22;8141;52.664;5.074;2023-07-09T02:39:26;26.20;63.20
16074;DHT22;8141;52.664;5.074;2023-07-09T02:41:52;26.10;63.10
16074;DHT22;8141;52.664;5.074;2023-07-09T02:44:19;26.20;63.10
16074;DHT22;8141;52.664;5.074;2023-07-09T02:46:45;26.20;63.10
16074;DHT22;8141;52.664;5.074;2023-07-09T02:49:13;26.20;63.10
16074;DHT22;8141;52.664;5.074;2023-07-09T02:51:39;26.10;62.90
16074;DHT22;8141;52.664;5.074;2023-07-09T02:54:06;26.20;63.10
16074;DHT22;8141;52.664;5.074;2023-07-09T02:56:32;26.10;63.00
16074;DHT22;8141;52.664;5.074;2023-07-09T02:58:57;26.10;63.00
16074;DHT22;8141;52.664;5.074;2023-07-09T03:01:24;26.10;62.90
16074;DHT22;8141;52.664;5.074;2023-07-09T03:03:54;26.10;63.00
16074;DHT22;8141;52.664;5.074;2023-07-09T03:06:21;26.10;63.00
16074;DHT22;8141;52.664;5.074;2023-07-09T03:08:47;26.10;63.00
16074;DHT22;8141;52.664;5.074;2023-07-09T03:11:15;26.10;63.00
16074;DHT22;8141;52.664;5.074;2023-07-09T03:13:42;26.10;63.00
16074;DHT22;8141;52.664;5.074;2023-07-09T03:16:09;26.10;63.00
16074;DHT22;8141;52.664;5.074;2023-07-09T03:18:35;26.10;63.10
16074;DHT22;8141;52.664;5.074;2023-07-09T03:21:00;26.10;63.10
16074;DHT22;8141;52.664;5.074;2023-07-09T03:23:26;26.10;63.20
16074;DHT22;8141;52.664;5.074;2023-07-09T03:25:52;26.10;63.20
16074;DHT22;8141;52.664;5.074;2023-07-09T03:28:18;26.10;63.30
16074;DHT22;8141;52.664;5.074;2023-07-09T03:30:46;26.10;63.40
16074;DHT22;8141;52.664;5.074;2023-07-09T03:33:14;26.10;63.40
16074;DHT22;8141;52.664;5.074;2023-07-09T03:35:41;26.10;63.40
16074;DHT22;8141;52.664;5.074;2023-07-09T03:38:08;26.00;63.30
16074;DHT22;8141;52.664;5.074;2023-07-09T03:40:35;26.00;63.40
16074;DHT22;8141;52.664;5.074;2023-07-09T03:43:06;26.00;64.10
16074;DHT22;8141;52.664;5.074;2023-07-09T03:45:36;26.00;63.40
16074;DHT22;8141;52.664;5.074;2023-07-09T03:48:03;26.00;63.40
16074;DHT22;8141;52.664;5.074;2023-07-09T03:50:30;26.00;63.40
16074;DHT22;8141;52.664;5.074;2023-07-09T03:52:56;26.00;63.40
16074;DHT22;8141;52.664;5.074;2023-07-09T03:55:21;26.00;63.50
16074;DHT22;8141;52.664;5.074;2023-07-09T03:57:47;26.00;63.50
16074;DHT22;8141;52.664;5.074;2023-07-09T04:00:13;26.00;63.60
16074;DHT22;8141;52.664;5.074;2023-07-09T04:02:40;26.00;63.50
16074;DHT22;8141;52.664;5.074;2023-07-09T04:05:08;26.00;63.40
16074;DHT22;8141;52.664;5.074;2023-07-09T04:07:35;26.00;63.60
16074;DHT22;8141;52.664;5.074;2023-07-09T04:10:00;26.00;63.50
16074;DHT22;8141;52.664;5.074;2023-07-09T04:12:26;26.00;63.60
16074;DHT22;8141;52.664;5.074;2023-07-09T04:14:52;26.00;64.00
16074;DHT22;8141;52.664;5.074;2023-07-09T04:17:18;26.00;63.60
16074;DHT22;8141;52.664;5.074;2023-07-09T04:19:44;26.00;63.60
16074;DHT22;8141;52.664;5.074;2023-07-09T04:22:12;26.00;63.80
16074;DHT22;8141;52.664;5.074;2023-07-09T04:24:38;26.00;63.80
16074;DHT22;8141;52.664;5.074;2023-07-09T04:27:04;26.00;63.90
16074;DHT22;8141;52.664;5.074;2023-07-09T04:29:30;26.00;64.00
16074;DHT22;8141;52.664;5.074;2023-07-09T04:31:59;26.00;64.00
16074;DHT22;8141;52.664;5.074;2023-07-09T04:34:25;26.00;64.00
16074;DHT22;8141;52.664;5.074;2023-07-09T04:36:51;26.00;64.10
16074;DHT22;8141;52.664;5.074;2023-07-09T04:39:16;26.00;64.10
16074;DHT22;8141;52.664;5.074;2023-07-09T04:41:42;26.00;64.30
16074;DHT22;8141;52.664;5.074;2023-07-09T04:44:08;26.00;64.20
16074;DHT22;8141;52.664;5.074;2023-07-09T04:46:34;26.00;64.20
16074;DHT22;8141;52.664;5.074;2023-07-09T04:49:00;26.00;65.00
16074;DHT22;8141;52.664;5.074;2023-07-09T04:51:26;26.00;64.50
16074;DHT22;8141;52.664;5.074;2023-07-09T04:53:52;26.00;64.60
16074;DHT22;8141;52.664;5.074;2023-07-09T04:56:18;26.00;64.50
16074;DHT22;8141;52.664;5.074;2023-07-09T04:58:44;26.00;64.50
16074;DHT22;8141;52.664;5.074;2023-07-09T05:01:10;26.00;64.60
16074;DHT22;8141;52.664;5.074;2023-07-09T05:03:36;26.00;65.20
16074;DHT22;8141;52.664;5.074;2023-07-09T05:06:02;26.00;64.60
16074;DHT22;8141;52.664;5.074;2023-07-09T05:08:28;26.00;64.80
16074;DHT22;8141;52.664;5.074;2023-07-09T05:10:57;26.00;64.70
16074;DHT22;8141;52.664;5.074;2023-07-09T05:13:23;26.00;64.50
16074;DHT22;8141;52.664;5.074;2023-07-09T05:15:49;26.00;64.60
16074;DHT22;8141;52.664;5.074;2023-07-09T05:18:16;26.00;64.50
16074;DHT22;8141;52.664;5.074;2023-07-09T05:20:43;26.00;64.50
16074;DHT22;8141;52.664;5.074;2023-07-09T05:23:10;26.00;64.40
16074;DHT22;8141;52.664;5.074;2023-07-09T05:25:37;26.00;64.50
16074;DHT22;8141;52.664;5.074;2023-07-09T05:28:04;26.00;64.50
16074;DHT22;8141;52.664;5.074;2023-07-09T05:30:30;26.00;64.50
16074;DHT22;8141;52.664;5.074;2023-07-09T05:32:55;26.00;64.30
16074;DHT22;8141;52.664;5.074;2023-07-09T05:35:24;26.00;64.30
16074;DHT22;8141;52.664;5.074;2023-07-09T05:37:54;26.10;64.40
16074;DHT22;8141;52.664;5.074;2023-07-09T05:40:21;26.10;64.40
16074;DHT22;8141;52.664;5.074;2023-07-09T05:42:48;26.10;64.70
16074;DHT22;8141;52.664;5.074;2023-07-09T05:45:15;26.10;65.00
16074;DHT22;8141;52.664;5.074;2023-07-09T05:47:41;26.10;64.60
16074;DHT22;8141;52.664;5.074;2023-07-09T05:50:07;26.10;64.50
16074;DHT22;8141;52.664;5.074;2023-07-09T05:52:33;26.10;64.60
16074;DHT22;8141;52.664;5.074;2023-07-09T05:54:59;26.10;64.40
16074;DHT22;8141;52.664;5.074;2023-07-09T05:57:25;26.10;64.00
16074;DHT22;8141;52.664;5.074;2023-07-09T05:59:51;26.10;63.70
16074;DHT22;8141;52.664;5.074;2023-07-09T06:02:19;26.10;63.40
16074;DHT22;8141;52.664;5.074;2023-07-09T06:04:46;26.10;63.40
16074;DHT22;8141;52.664;5.074;2023-07-09T06:07:15;26.10;63.30
16074;DHT22;8141;52.664;5.074;2023-07-09T06:09:41;26.10;63.20
16074;DHT22;8141;52.664;5.074;2023-07-09T06:12:07;26.10;63.10
16074;DHT22;8141;52.664;5.074;2023-07-09T06:14:34;26.10;63.00
16074;DHT22;8141;52.664;5.074;2023-07-09T06:17:00;26.10;63.00
16074;DHT22;8141;52.664;5.074;2023-07-09T06:19:27;26.10;62.80
16074;DHT22;8141;52.664;5.074;2023-07-09T06:21:52;26.10;62.80
16074;DHT22;8141;52.664;5.074;2023-07-09T06:24:18;26.10;62.70
16074;DHT22;8141;52.664;5.074;2023-07-09T06:26:44;26.10;62.70
16074;DHT22;8141;52.664;5.074;2023-07-09T06:29:10;26.10;62.60
16074;DHT22;8141;52.664;5.074;2023-07-09T06:31:35;26.10;62.60
16074;DHT22;8141;52.664;5.074;2023-07-09T06:34:02;26.10;62.50
16074;DHT22;8141;52.664;5.074;2023-07-09T06:36:28;26.10;62.50
16074;DHT22;8141;52.664;5.074;2023-07-09T06:38:54;26.10;62.40
16074;DHT22;8141;52.664;5.074;2023-07-09T06:41:20;26.10;62.40
16074;DHT22;8141;52.664;5.074;2023-07-09T06:43:46;26.10;62.30
16074;DHT22;8141;52.664;5.074;2023-07-09T06:46:14;26.10;62.30
16074;DHT22;8141;52.664;5.074;2023-07-09T06:48:40;26.10;62.20
16074;DHT22;8141;52.664;5.074;2023-07-09T06:51:06;26.20;62.20
16074;DHT22;8141;52.664;5.074;2023-07-09T06:53:32;26.10;62.10
16074;DHT22;8141;52.664;5.074;2023-07-09T06:55:58;26.10;62.10
16074;DHT22;8141;52.664;5.074;2023-07-09T06:58:28;26.10;62.10
16074;DHT22;8141;52.664;5.074;2023-07-09T07:00:57;26.10;62.00
16074;DHT22;8141;52.664;5.074;2023-07-09T07:03:23;26.20;62.10
16074;DHT22;8141;52.664;5.074;2023-07-09T07:05:53;26.10;62.00
16074;DHT22;8141;52.664;5.074;2023-07-09T07:08:21;26.20;62.00
16074;DHT22;8141;52.664;5.074;2023-07-09T07:10:49;26.10;61.80
16074;DHT22;8141;52.664;5.074;2023-07-09T07:13:16;26.10;61.80
16074;DHT22;8141;52.664;5.074;2023-07-09T07:15:48;26.10;61.80
16074;DHT22;8141;52.664;5.074;2023-07-09T07:18:15;26.20;61.80
16074;DHT22;8141;52.664;5.074;2023-07-09T07:20:40;26.20;61.80
16074;DHT22;8141;52.664;5.074;2023-07-09T07:23:06;26.20;61.80
16074;DHT22;8141;52.664;5.074;2023-07-09T07:25:32;26.20;61.80
16074;DHT22;8141;52.664;5.074;2023-07-09T07:27:58;26.20;61.70
16074;DHT22;8141;52.664;5.074;2023-07-09T07:30:24;26.20;61.60
16074;DHT22;8141;52.664;5.074;2023-07-09T07:32:50;26.20;61.60
16074;DHT22;8141;52.664;5.074;2023-07-09T07:35:16;26.20;61.60
16074;DHT22;8141;52.664;5.074;2023-07-09T07:37:42;26.20;61.50
16074;DHT22;8141;52.664;5.074;2023-07-09T07:40:09;26.20;61.60
16074;DHT22;8141;52.664;5.074;2023-07-09T07:42:36;26.20;61.70
16074;DHT22;8141;52.664;5.074;2023-07-09T07:45:03;26.20;61.60
16074;DHT22;8141;52.664;5.074;2023-07-09T07:47:30;26.20;61.50
16074;DHT22;8141;52.664;5.074;2023-07-09T07:49:56;26.20;61.50
16074;DHT22;8141;52.664;5.074;2023-07-09T07:52:22;26.20;61.40
16074;DHT22;8141;52.664;5.074;2023-07-09T07:54:48;26.20;61.40
16074;DHT22;8141;52.664;5.074;2023-07-09T07:57:14;26.20;61.40
16074;DHT22;8141;52.664;5.074;2023-07-09T07:59:40;26.20;61.30
16074;DHT22;8141;52.664;5.074;2023-07-09T08:02:11;26.20;61.30
16074;DHT22;8141;52.664;5.074;2023-07-09T08:04:38;26.20;61.30
16074;DHT22;8141;52.664;5.074;2023-07-09T08:07:06;26.20;61.30
16074;DHT22;8141;52.664;5.074;2023-07-09T08:09:33;26.20;61.20
16074;DHT22;8141;52.664;5.074;2023-07-09T08:12:00;26.20;61.20
16074;DHT22;8141;52.664;5.074;2023-07-09T08:14:26;26.20;61.20
16074;DHT22;8141;52.664;5.074;2023-07-09T08:16:52;26.20;61.20
16074;DHT22;8141;52.664;5.074;2023-07-09T08:19:19;26.20;61.20
16074;DHT22;8141;52.664;5.074;2023-07-09T08:21:45;26.20;61.70
16074;DHT22;8141;52.664;5.074;2023-07-09T08:24:12;26.20;61.10
16074;DHT22;8141;52.664;5.074;2023-07-09T08:26:39;26.20;61.10
16074;DHT22;8141;52.664;5.074;2023-07-09T08:29:05;26.30;61.10
16074;DHT22;8141;52.664;5.074;2023-07-09T08:31:31;26.20;61.10
16074;DHT22;8141;52.664;5.074;2023-07-09T08:33:57;26.20;61.10
16074;DHT22;8141;52.664;5.074;2023-07-09T08:36:23;26.20;61.10
16074;DHT22;8141;52.664;5.074;2023-07-09T08:38:49;26.20;61.10
16074;DHT22;8141;52.664;5.074;2023-07-09T08:41:37;26.30;61.10
16074;DHT22;8141;52.664;5.074;2023-07-09T08:44:41;26.20;61.10
16074;DHT22;8141;52.664;5.074;2023-07-09T08:47:31;26.30;61.10
16074;DHT22;8141;52.664;5.074;2023-07-09T08:50:02;26.30;61.10
16074;DHT22;8141;52.664;5.074;2023-07-09T08:52:35;26.20;61.00
16074;DHT22;8141;52.664;5.074;2023-07-09T08:55:14;26.30;61.10
16074;DHT22;8141;52.664;5.074;2023-07-09T08:57:47;26.30;61.10
16074;DHT22;8141;52.664;5.074;2023-07-09T09:00:23;26.30;61.20
16074;DHT22;8141;52.664;5.074;2023-07-09T09:03:11;26.30;61.10
16074;DHT22;8141;52.664;5.074;2023-07-09T09:05:43;26.30;61.10
16074;DHT22;8141;52.664;5.074;2023-07-09T09:11:14;26.30;61.10
16074;DHT22;8141;52.664;5.074;2023-07-09T09:13:52;26.30;61.10
16074;DHT22;8141;52.664;5.074;2023-07-09T09:16:35;26.30;61.10
16074;DHT22;8141;52.664;5.074;2023-07-09T09:19:28;26.30;61.10
16074;DHT22;8141;52.664;5.074;2023-07-09T09:22:06;26.40;61.10
16074;DHT22;8141;52.664;5.074;2023-07-09T09:24:47;26.40;61.20
16074;DHT22;8141;52.664;5.074;2023-07-09T09:27:18;26.30;61.10
16074;DHT22;8141;52.664;5.074;2023-07-09T09:29:44;26.30;61.00
16074;DHT22;8141;52.664;5.074;2023-07-09T09:32:30;26.30;61.10
16074;DHT22;8141;52.664;5.074;2023-07-09T09:35:12;26.40;61.20
16074;DHT22;8141;52.664;5.074;2023-07-09T09:37:43;26.40;61.10
16074;DHT22;8141;52.664;5.074;2023-07-09T09:40:10;26.40;61.00
16074;DHT22;8141;52.664;5.074;2023-07-09T09:42:36;26.40;61.10
16074;DHT22;8141;52.664;5.074;2023-07-09T09:45:02;26.40;61.20
16074;DHT22;8141;52.664;5.074;2023-07-09T09:47:28;26.40;61.30
16074;DHT22;8141;52.664;5.074;2023-07-09T09:49:54;26.40;61.20
16074;DHT22;8141;52.664;5.074;2023-07-09T09:52:23;26.40;61.10
16074;DHT22;8141;52.664;5.074;2023-07-09T09:54:55;26.40;61.00
16074;DHT22;8141;52.664;5.074;2023-07-09T09:57:24;26.40;61.00
16074;DHT22;8141;52.664;5.074;2023-07-09T09:59:53;26.40;60.90
16074;DHT22;8141;52.664;5.074;2023-07-09T10:02:22;26.40;60.90
16074;DHT22;8141;52.664;5.074;2023-07-09T10:04:50;26.50;61.10
16074;DHT22;8141;52.664;5.074;2023-07-09T10:07:36;26.50;61.10
16074;DHT22;8141;52.664;5.074;2023-07-09T10:10:13;26.50;61.70
16074;DHT22;8141;52.664;5.074;2023-07-09T10:15:38;26.50;64.20
16074;DHT22;8141;52.664;5.074;2023-07-09T10:18:13;26.50;63.70
16074;DHT22;8141;52.664;5.074;2023-07-09T10:20:49;26.50;63.70
16074;DHT22;8141;52.664;5.074;2023-07-09T10:25:57;26.60;63.80
16074;DHT22;8141;52.664;5.074;2023-07-09T10:31:41;26.60;65.30
16074;DHT22;8141;52.664;5.074;2023-07-09T10:40:10;26.60;65.30
16074;DHT22;8141;52.664;5.074;2023-07-09T10:42:45;26.60;66.20
16074;DHT22;8141;52.664;5.074;2023-07-09T10:45:26;26.60;65.00
16074;DHT22;8141;52.664;5.074;2023-07-09T10:48:27;26.60;65.20
16074;DHT22;8141;52.664;5.074;2023-07-09T10:51:00;26.60;65.40
16074;DHT22;8141;52.664;5.074;2023-07-09T10:53:48;26.60;65.30
16074;DHT22;8141;52.664;5.074;2023-07-09T10:56:26;26.60;65.20
16074;DHT22;8141;52.664;5.074;2023-07-09T11:02:24;26.70;65.10
16074;DHT22;8141;52.664;5.074;2023-07-09T11:05:06;26.70;65.00
16074;DHT22;8141;52.664;5.074;2023-07-09T11:10:40;26.70;64.80
16074;DHT22;8141;52.664;5.074;2023-07-09T11:16:06;26.70;64.80
16074;DHT22;8141;52.664;5.074;2023-07-09T11:18:34;26.70;64.60
16074;DHT22;8141;52.664;5.074;2023-07-09T11:21:12;26.70;64.70
16074;DHT22;8141;52.664;5.074;2023-07-09T11:23:54;26.70;64.70
16074;DHT22;8141;52.664;5.074;2023-07-09T11:31:38;26.70;64.20
16074;DHT22;8141;52.664;5.074;2023-07-09T11:34:16;26.70;64.40
16074;DHT22;8141;52.664;5.074;2023-07-09T11:39:44;26.70;64.20
16074;DHT22;8141;52.664;5.074;2023-07-09T11:42:33;26.70;64.10
16074;DHT22;8141;52.664;5.074;2023-07-09T11:45:10;26.70;64.00
16074;DHT22;8141;52.664;5.074;2023-07-09T11:47:45;26.70;63.80
16074;DHT22;8141;52.664;5.074;2023-07-09T11:50:27;26.80;63.80
16074;DHT22;8141;52.664;5.074;2023-07-09T11:55:59;26.80;64.20
16074;DHT22;8141;52.664;5.074;2023-07-09T11:58:24;26.80;63.20
16074;DHT22;8141;52.664;5.074;2023-07-09T12:00:54;26.80;63.10
16074;DHT22;8141;52.664;5.074;2023-07-09T12:03:33;26.80;63.60
16074;DHT22;8141;52.664;5.074;2023-07-09T12:06:01;26.80;63.80
16074;DHT22;8141;52.664;5.074;2023-07-09T12:08:36;26.80;63.70
16074;DHT22;8141;52.664;5.074;2023-07-09T12:11:03;26.80;63.70
16074;DHT22;8141;52.664;5.074;2023-07-09T12:13:37;26.80;63.90
16074;DHT22;8141;52.664;5.074;2023-07-09T12:16:03;26.80;63.90
16074;DHT22;8141;52.664;5.074;2023-07-09T12:18:29;26.80;64.00
16074;DHT22;8141;52.664;5.074;2023-07-09T12:20:55;26.80;64.10
16074;DHT22;8141;52.664;5.074;2023-07-09T12:23:32;26.80;64.00
16074;DHT22;8141;52.664;5.074;2023-07-09T12:26:02;26.80;64.00
16074;DHT22;8141;52.664;5.074;2023-07-09T12:28:30;26.90;64.00
16074;DHT22;8141;52.664;5.074;2023-07-09T12:30:56;26.90;64.00
16074;DHT22;8141;52.664;5.074;2023-07-09T12:33:24;26.90;64.00
16074;DHT22;8141;52.664;5.074;2023-07-09T12:35:57;26.90;64.00
16074;DHT22;8141;52.664;5.074;2023-07-09T12:38:26;26.90;64.00
16074;DHT22;8141;52.664;5.074;2023-07-09T12:40:54;26.90;64.00
16074;DHT22;8141;52.664;5.074;2023-07-09T12:43:30;26.90;64.00
16074;DHT22;8141;52.664;5.074;2023-07-09T12:45:58;26.90;63.80
16074;DHT22;8141;52.664;5.074;2023-07-09T12:48:29;26.90;63.80
16074;DHT22;8141;52.664;5.074;2023-07-09T12:50:57;26.90;63.70
16074;DHT22;8141;52.664;5.074;2023-07-09T12:53:25;26.90;63.60
16074;DHT22;8141;52.664;5.074;2023-07-09T12:55:55;26.90;63.50
16074;DHT22;8141;52.664;5.074;2023-07-09T12:58:31;26.90;63.40
16074;DHT22;8141;52.664;5.074;2023-07-09T13:01:00;26.90;63.40
16074;DHT22;8141;52.664;5.074;2023-07-09T13:03:32;26.90;63.20
16074;DHT22;8141;52.664;5.074;2023-07-09T13:06:23;26.90;63.30
16074;DHT22;8141;52.664;5.074;2023-07-09T13:08:56;26.90;63.20
16074;DHT22;8141;52.664;5.074;2023-07-09T13:11:24;26.90;63.20
16074;DHT22;8141;52.664;5.074;2023-07-09T13:13:58;26.90;63.20
16074;DHT22;8141;52.664;5.074;2023-07-09T13:16:27;26.90;62.90
16074;DHT22;8141;52.664;5.074;2023-07-09T13:18:53;26.90;62.90
16074;DHT22;8141;52.664;5.074;2023-07-09T13:21:20;26.90;62.70
16074;DHT22;8141;52.664;5.074;2023-07-09T13:23:47;26.90;62.50
16074;DHT22;8141;52.664;5.074;2023-07-09T13:26:14;26.90;62.50
16074;DHT22;8141;52.664;5.074;2023-07-09T13:28:41;26.90;62.40
16074;DHT22;8141;52.664;5.074;2023-07-09T13:33:44;26.90;62.20
16074;DHT22;8141;52.664;5.074;2023-07-09T13:36:16;26.90;62.70
16074;DHT22;8141;52.664;5.074;2023-07-09T13:38:41;26.90;62.00
16074;DHT22;8141;52.664;5.074;2023-07-09T13:41:13;26.90;62.10
16074;DHT22;8141;52.664;5.074;2023-07-09T13:43:44;26.90;62.00
16074;DHT22;8141;52.664;5.074;2023-07-09T13:46:11;26.90;62.10
16074;DHT22;8141;52.664;5.074;2023-07-09T13:48:39;26.90;62.20
16074;DHT22;8141;52.664;5.074;2023-07-09T13:51:18;26.80;62.00
16074;DHT22;8141;52.664;5.074;2023-07-09T13:53:49;26.80;62.00
16074;DHT22;8141;52.664;5.074;2023-07-09T13:56:17;26.80;62.00
16074;DHT22;8141;52.664;5.074;2023-07-09T13:58:43;26.80;62.00
16074;DHT22;8141;52.664;5.074;2023-07-09T14:01:13;26.80;62.30
16074;DHT22;8141;52.664;5.074;2023-07-09T14:03:40;26.80;62.30
16074;DHT22;8141;52.664;5.074;2023-07-09T14:06:12;26.80;62.40
16074;DHT22;8141;52.664;5.074;2023-07-09T14:08:39;26.80;62.50
16074;DHT22;8141;52.664;5.074;2023-07-09T14:11:13;26.80;62.30
16074;DHT22;8141;52.664;5.074;2023-07-09T14:13:40;26.80;62.10
16074;DHT22;8141;52.664;5.074;2023-07-09T14:16:10;26.80;62.70
16074;DHT22;8141;52.664;5.074;2023-07-09T14:18:36;26.80;62.00
16074;DHT22;8141;52.664;5.074;2023-07-09T14:21:13;26.80;61.80
16074;DHT22;8141;52.664;5.074;2023-07-09T14:23:41;26.80;61.80
16074;DHT22;8141;52.664;5.074;2023-07-09T14:26:11;26.80;61.80
16074;DHT22;8141;52.664;5.074;2023-07-09T14:28:37;26.80;62.00
16074;DHT22;8141;52.664;5.074;2023-07-09T14:31:32;26.80;61.90
16074;DHT22;8141;52.664;5.074;2023-07-09T14:34:35;26.80;61.90
16074;DHT22;8141;52.664;5.074;2023-07-09T14:37:00;26.70;62.00
16074;DHT22;8141;52.664;5.074;2023-07-09T14:39:27;26.70;62.20
16074;DHT22;8141;52.664;5.074;2023-07-09T14:41:54;26.70;62.20
16074;DHT22;8141;52.664;5.074;2023-07-09T14:44:26;26.70;62.20
16074;DHT22;8141;52.664;5.074;2023-07-09T14:46:56;26.70;62.20
16074;DHT22;8141;52.664;5.074;2023-07-09T14:49:23;26.70;62.30
16074;DHT22;8141;52.664;5.074;2023-07-09T14:51:50;26.70;62.40
16074;DHT22;8141;52.664;5.074;2023-07-09T14:54:29;26.60;62.40
16074;DHT22;8141;52.664;5.074;2023-07-09T14:56:57;26.70;62.70
16074;DHT22;8141;52.664;5.074;2023-07-09T14:59:24;26.60;62.70
16074;DHT22;8141;52.664;5.074;2023-07-09T15:01:51;26.60;62.80
16074;DHT22;8141;52.664;5.074;2023-07-09T15:04:32;26.60;62.80
16074;DHT22;8141;52.664;5.074;2023-07-09T15:06:59;26.60;62.90
16074;DHT22;8141;52.664;5.074;2023-07-09T15:09:27;26.50;62.80
16074;DHT22;8141;52.664;5.074;2023-07-09T15:11:58;26.50;62.60
16074;DHT22;8141;52.664;5.074;2023-07-09T15:14:26;26.50;62.70
16074;DHT22;8141;52.664;5.074;2023-07-09T15:16:53;26.50;62.70
16074;DHT22;8141;52.664;5.074;2023-07-09T15:19:21;26.50;62.60
16074;DHT22;8141;52.664;5.074;2023-07-09T15:21:49;26.50;62.60
16074;DHT22;8141;52.664;5.074;2023-07-09T15:24:30;26.50;62.60
16074;DHT22;8141;52.664;5.074;2023-07-09T15:26:57;26.60;62.80
16074;DHT22;8141;52.664;5.074;2023-07-09T15:29:26;26.60;62.70
16074;DHT22;8141;52.664;5.074;2023-07-09T15:31:53;26.60;62.60
16074;DHT22;8141;52.664;5.074;2023-07-09T15:34:19;26.70;62.70
16074;DHT22;8141;52.664;5.074;2023-07-09T15:36:46;26.70;62.60
16074;DHT22;8141;52.664;5.074;2023-07-09T15:39:15;26.70;62.60
16074;DHT22;8141;52.664;5.074;2023-07-09T15:41:41;26.70;62.60
16074;DHT22;8141;52.664;5.074;2023-07-09T15:44:15;26.70;62.60
16074;DHT22;8141;52.664;5.074;2023-07-09T15:46:51;26.70;62.70
16074;DHT22;8141;52.664;5.074;2023-07-09T15:49:19;26.70;62.90
16074;DHT22;8141;52.664;5.074;2023-07-09T15:51:45;26.70;63.10
16074;DHT22;8141;52.664;5.074;2023-07-09T15:54:18;26.70;63.50
16074;DHT22;8141;52.664;5.074;2023-07-09T15:56:46;26.70;63.90
16074;DHT22;8141;52.664;5.074;2023-07-09T16:01:55;26.70;63.90
16074;DHT22;8141;52.664;5.074;2023-07-09T16:04:21;26.70;64.30
16074;DHT22;8141;52.664;5.074;2023-07-09T16:06:47;26.70;64.30
16074;DHT22;8141;52.664;5.074;2023-07-09T16:09:13;26.70;64.20
16074;DHT22;8141;52.664;5.074;2023-07-09T16:11:42;26.70;64.20
16074;DHT22;8141;52.664;5.074;2023-07-09T16:14:29;26.70;64.30
16074;DHT22;8141;52.664;5.074;2023-07-09T16:16:58;26.70;64.30
16074;DHT22;8141;52.664;5.074;2023-07-09T16:19:28;26.70;64.20
16074;DHT22;8141;52.664;5.074;2023-07-09T16:22:03;26.70;64.20
16074;DHT22;8141;52.664;5.074;2023-07-09T16:24:32;26.70;64.30
16074;DHT22;8141;52.664;5.074;2023-07-09T16:27:01;26.70;64.50
16074;DHT22;8141;52.664;5.074;2023-07-09T16:29:31;26.70;64.30
16074;DHT22;8141;52.664;5.074;2023-07-09T16:31:59;26.70;64.20
16074;DHT22;8141;52.664;5.074;2023-07-09T16:34:26;26.80;64.10
16074;DHT22;8141;52.664;5.074;2023-07-09T16:36:55;26.70;63.90
16074;DHT22;8141;52.664;5.074;2023-07-09T16:39:26;26.80;63.90
16074;DHT22;8141;52.664;5.074;2023-07-09T16:41:58;26.80;63.70
16074;DHT22;8141;52.664;5.074;2023-07-09T16:44:24;26.80;63.60